Time;durP1;ratioP1;P1;durP2;ratioP2;P2;SDS_P1;SDS_P2;PMS_P1;PMS_P2;Temp;Humidity;BMP_temperature;BMP_pressure;BME280_temperature;BME280_humidity;BME280_pressure;Samples;Min_cycle;Max_cycle;Signal;HPM_P1;HPM_P2
2022/05/24 00:01:50;;;;;;;0.98;0.22;;;;;;;25.30;37.00;100636.94;5062951;28;20401;-49
2022/05/24 00:04:19;;;;;;;1.70;0.50;;;;;;;25.36;37.06;100643.94;5062396;28;20028;-45
2022/05/24 00:06:47;;;;;;;1.25;0.30;;;;;;;25.32;36.86;100635.19;5062214;28;20477;-46
2022/05/24 00:09:16;;;;;;;2.30;0.65;;;;;;;25.33;37.11;100640.44;5062844;28;20112;-44
2022/05/24 00:11:45;;;;;;;1.63;0.40;;;;;;;25.33;36.85;100640.44;5062899;28;20032;-47
2022/05/24 00:14:13;;;;;;;0.98;0.30;;;;;;;25.36;37.03;100638.69;5052281;28;20514;-45
2022/05/24 00:16:42;;;;;;;0.90;0.47;;;;;;;25.31;36.85;100636.97;5045175;28;20553;-49
2022/05/24 00:19:10;;;;;;;3.42;0.40;;;;;;;25.32;37.24;100643.06;5062706;28;20200;-46
2022/05/24 00:21:38;;;;;;;0.80;0.20;;;;;;;25.35;37.00;100645.72;5062587;28;20040;-45
2022/05/24 00:24:07;;;;;;;0.88;0.25;;;;;;;25.31;36.78;100652.72;5060788;28;20044;-45
2022/05/24 00:26:35;;;;;;;1.63;0.60;;;;;;;25.27;36.77;100650.94;5062511;28;20037;-51
2022/05/24 00:29:03;;;;;;;0.55;0.38;;;;;;;25.25;36.81;100647.44;5062371;28;20040;-47
2022/05/24 00:31:32;;;;;;;1.33;0.43;;;;;;;25.33;36.89;100643.06;5062883;28;20040;-46
2022/05/24 00:34:00;;;;;;;1.40;0.40;;;;;;;25.31;36.68;100636.06;5062580;28;20486;-47
2022/05/24 00:36:29;;;;;;;2.92;0.40;;;;;;;25.31;36.97;100638.69;5062440;28;20068;-49
2022/05/24 00:38:57;;;;;;;1.13;0.30;;;;;;;25.34;36.66;100644.81;5062497;28;20020;-46
2022/05/24 00:41:31;;;;;;;1.35;0.30;;;;;;;25.32;36.94;100648.31;5062040;28;20024;-45
2022/05/24 00:44:09;;;;;;;1.47;0.50;;;;;;;25.25;36.59;100641.28;5031827;28;20060;-47
2022/05/24 00:46:57;;;;;;;0.35;0.22;;;;;;;25.32;36.91;100643.06;5043318;28;20032;-46
2022/05/24 00:49:29;;;;;;;2.03;0.50;;;;;;;25.24;37.04;100629.94;5062274;28;20024;-45
2022/05/24 00:52:03;;;;;;;1.88;0.40;;;;;;;25.24;36.58;100634.28;5052204;28;20166;-44
2022/05/24 00:54:32;;;;;;;1.00;0.25;;;;;;;25.25;37.02;100634.31;5049175;28;20398;-45
2022/05/24 00:57:38;;;;;;;1.45;0.50;;;;;;;25.24;36.72;100623.78;5043099;28;20037;-48
2022/05/24 01:00:09;;;;;;;1.25;0.30;;;;;;;25.22;37.05;100625.56;5039804;28;20045;-45
2022/05/24 01:02:38;;;;;;;0.98;0.40;;;;;;;25.22;37.09;100631.66;5043239;28;20036;-45
2022/05/24 01:05:09;;;;;;;4.93;0.52;;;;;;;25.24;36.81;100640.44;5043466;28;20060;-46
2022/05/24 01:07:37;;;;;;;1.05;0.20;;;;;;;25.20;36.63;100629.94;5043101;28;20068;-48
2022/05/24 01:10:08;;;;;;;1.52;0.60;;;;;;;25.20;36.93;100627.31;5043509;28;20021;-48
2022/05/24 01:12:40;;;;;;;0.40;0.20;;;;;;;25.14;36.61;100623.78;5043333;28;20083;-50
2022/05/24 01:15:09;;;;;;;1.20;0.30;;;;;;;25.18;36.60;100629.91;5046290;28;20536;-49
2022/05/24 01:17:38;;;;;;;2.10;0.30;;;;;;;25.17;36.69;100628.16;5043001;28;20037;-50
2022/05/24 01:20:07;;;;;;;1.85;0.32;;;;;;;25.12;36.88;100625.53;5046851;28;20027;-47
2022/05/24 01:22:42;;;;;;;1.98;0.50;;;;;;;25.17;36.89;100638.66;5045283;28;20029;-46
2022/05/24 01:25:13;;;;;;;;;;;;;;;25.24;36.76;100642.16;5052178;28;20371;-47
2022/05/24 01:27:42;;;;;;;1.35;0.35;;;;;;;25.21;36.81;100645.66;5046299;28;19963;-46
2022/05/24 01:30:11;;;;;;;1.35;0.40;;;;;;;25.16;36.47;100637.78;5046217;28;20052;-50
2022/05/24 01:38:17;;;;;;;1.35;0.20;;;;;;;25.14;36.64;100629.03;5039696;28;20040;-50
2022/05/24 01:40:45;;;;;;;1.17;0.47;;;;;;;25.17;36.41;100625.53;5057536;28;20111;-45
2022/05/24 01:43:14;;;;;;;0.63;0.40;;;;;;;25.14;36.32;100628.16;5065353;28;20021;-45
2022/05/24 01:45:49;;;;;;;0.50;0.20;;;;;;;25.12;36.48;100625.53;5049332;28;20548;-47
2022/05/24 01:48:20;;;;;;;0.90;0.20;;;;;;;25.10;36.60;100626.41;5046308;28;20072;-45
2022/05/24 01:50:49;;;;;;;2.13;0.30;;;;;;;25.12;36.61;100633.38;5045031;28;20037;-45
2022/05/24 01:53:21;;;;;;;1.10;0.20;;;;;;;25.07;36.74;100631.63;5044880;28;20044;-48
2022/05/24 01:55:52;;;;;;;1.33;0.30;;;;;;;25.06;36.47;100632.50;5055346;28;20032;-45
2022/05/24 01:58:22;;;;;;;2.10;0.30;;;;;;;25.10;36.49;100631.66;5038175;28;20125;-49
2022/05/24 02:00:57;;;;;;;0.60;0.20;;;;;;;25.00;36.24;100622.88;5063925;28;20072;-46
2022/05/24 02:03:25;;;;;;;1.67;0.30;;;;;;;25.06;36.71;100635.13;5037469;28;20024;-46
2022/05/24 02:05:53;;;;;;;1.70;0.45;;;;;;;25.07;36.58;100631.63;5064298;28;20048;-45
2022/05/24 02:08:21;;;;;;;0.30;0.30;;;;;;;25.07;36.27;100623.75;5063585;28;20471;-46
2022/05/24 02:10:59;;;;;;;0.85;0.30;;;;;;;25.06;36.20;100635.13;5064701;28;20430;-45
2022/05/24 02:13:35;;;;;;;0.90;0.30;;;;;;;24.98;36.68;100628.13;5048215;28;20025;-45
2022/05/24 02:16:06;;;;;;;1.50;0.40;;;;;;;24.98;36.33;100630.75;5045835;28;20031;-45
2022/05/24 02:18:35;;;;;;;0.63;0.30;;;;;;;25.00;36.73;100626.34;5045507;28;20075;-47
2022/05/24 02:21:04;;;;;;;0.65;0.20;;;;;;;25.00;36.33;100628.97;5049109;28;20028;-44
2022/05/24 02:23:41;;;;;;;0.50;0.20;;;;;;;24.98;36.54;100641.25;5064498;28;20108;-45
2022/05/24 02:26:12;;;;;;;0.32;0.20;;;;;;;25.00;36.59;100634.22;5064164;28;20105;-49
2022/05/24 02:28:41;;;;;;;2.22;0.28;;;;;;;24.95;36.71;100645.56;5063342;28;20466;-46
2022/05/24 02:31:12;;;;;;;0.43;0.20;;;;;;;24.98;36.36;100643.88;5059732;28;20079;-49
2022/05/24 02:33:41;;;;;;;3.57;0.40;;;;;;;24.93;36.26;100642.06;5045606;28;20509;-50
2022/05/24 02:36:09;;;;;;;1.10;0.30;;;;;;;24.94;36.72;100644.72;5045271;28;20040;-45
2022/05/24 02:38:38;;;;;;;0.35;0.10;;;;;;;24.97;36.27;100644.72;5045362;28;20544;-47
2022/05/24 02:41:46;;;;;;;0.65;0.28;;;;;;;24.99;36.34;100642.97;5043849;28;20037;-47
2022/05/24 02:43:54;;;;;;;1.17;0.30;;;;;;;24.99;36.49;100645.59;5054394;28;20044;-49
2022/05/24 02:46:22;;;;;;;1.38;0.28;;;;;;;24.95;35.99;100641.22;5063871;28;20040;-45
2022/05/24 02:48:51;;;;;;;4.63;0.30;;;;;;;24.97;36.14;100641.22;5064180;28;20039;-46
2022/05/24 02:51:19;;;;;;;2.85;0.60;;;;;;;24.94;36.43;100647.34;5063630;28;20032;-46
2022/05/24 02:53:48;;;;;;;0.85;0.13;;;;;;;24.90;36.66;100636.84;5063625;28;20032;-46
2022/05/24 02:56:17;;;;;;;1.55;0.20;;;;;;;24.96;36.50;100647.34;5055372;28;20120;-44
2022/05/24 02:58:45;;;;;;;2.85;0.73;;;;;;;24.88;36.62;100637.69;5044939;28;20607;-45
2022/05/24 03:01:18;;;;;;;1.40;0.50;;;;;;;24.93;36.15;100640.34;5064106;28;20495;-45
2022/05/24 03:03:48;;;;;;;2.20;0.40;;;;;;;24.91;36.03;100626.34;5053097;28;20108;-45
2022/05/24 03:06:16;;;;;;;0.82;0.28;;;;;;;24.92;36.36;100630.72;5063638;28;20386;-48
2022/05/24 03:14:20;;;;;;;2.10;0.45;;;;;;;24.93;35.99;100644.69;5040506;28;20043;-49
2022/05/24 03:16:50;;;;;;;0.82;0.30;;;;;;;24.93;36.05;100649.94;5044524;28;20045;-49
2022/05/24 03:19:18;;;;;;;1.38;0.30;;;;;;;24.93;35.96;100644.69;5044739;28;20021;-48
2022/05/24 03:21:47;;;;;;;0.65;0.20;;;;;;;24.94;36.23;100651.69;5044592;28;20052;-47
2022/05/24 03:24:16;;;;;;;1.20;0.30;;;;;;;24.89;36.41;100641.19;5044099;28;20029;-48
2022/05/24 03:26:44;;;;;;;2.20;0.75;;;;;;;24.91;36.14;100651.69;5044061;28;20407;-48
2022/05/24 03:29:13;;;;;;;0.43;0.15;;;;;;;24.86;36.21;100643.78;5044316;28;20702;-52
2022/05/24 03:31:42;;;;;;;0.35;0.15;;;;;;;24.88;36.05;100650.81;5044384;28;20378;-52
2022/05/24 03:34:10;;;;;;;1.15;0.20;;;;;;;24.80;36.04;100647.28;5044420;28;20025;-45
2022/05/24 03:36:38;;;;;;;0.57;0.30;;;;;;;24.88;36.28;100657.81;5044308;28;20125;-51
2022/05/24 03:39:07;;;;;;;0.85;0.30;;;;;;;24.81;36.14;100653.41;5042734;28;20032;-46
2022/05/24 03:41:35;;;;;;;1.17;0.40;;;;;;;24.79;36.31;100636.78;5062328;28;20028;-49
2022/05/24 03:44:04;;;;;;;1.65;0.28;;;;;;;24.86;36.04;100641.16;5062715;28;20478;-47
2022/05/24 03:46:34;;;;;;;0.60;0.20;;;;;;;24.87;36.18;100637.69;5062974;28;20024;-45
2022/05/24 03:49:03;;;;;;;1.80;0.30;;;;;;;24.90;36.11;100636.84;5062736;28;20028;-45
2022/05/24 03:51:31;;;;;;;1.75;0.28;;;;;;;24.91;35.98;100636.81;5062978;28;20359;-46
2022/05/24 03:54:00;;;;;;;0.95;0.22;;;;;;;24.84;36.21;100632.41;5063139;28;20109;-49
2022/05/24 03:56:29;;;;;;;0.52;0.30;;;;;;;24.87;36.38;100630.69;5062580;28;20033;-47
2022/05/24 03:58:57;;;;;;;1.13;0.30;;;;;;;24.91;35.99;100634.22;5062725;28;20021;-50
2022/05/24 04:01:26;;;;;;;1.35;0.30;;;;;;;24.86;36.10;100633.28;5062133;28;20470;-52
2022/05/24 04:03:55;;;;;;;1.30;0.30;;;;;;;24.86;36.15;100631.56;5062640;28;20117;-51
2022/05/24 04:06:23;;;;;;;1.63;0.35;;;;;;;24.88;36.31;100628.94;5062248;28;20025;-47
2022/05/24 04:08:52;;;;;;;3.08;0.40;;;;;;;24.94;35.84;100620.22;5063031;28;20057;-46
2022/05/24 04:11:20;;;;;;;1.08;0.30;;;;;;;24.90;36.10;100624.56;5062932;28;20043;-49
2022/05/24 04:13:49;;;;;;;1.63;0.50;;;;;;;24.92;35.84;100611.44;5062661;28;20122;-51
2022/05/24 04:16:17;;;;;;;1.13;0.40;;;;;;;24.90;36.29;100626.34;5062610;28;20029;-48
2022/05/24 04:18:46;;;;;;;0.80;0.22;;;;;;;24.93;36.31;100621.06;5061864;28;20029;-52
2022/05/24 04:21:14;;;;;;;2.85;0.40;;;;;;;24.82;35.88;100614.06;5062290;28;20136;-45
2022/05/24 04:23:43;;;;;;;0.85;0.17;;;;;;;24.90;35.93;100628.97;5062407;28;20128;-46
2022/05/24 04:26:10;;;;;;;3.55;0.73;;;;;;;24.92;35.98;100638.59;5062751;28;20049;-50
2022/05/24 04:28:38;;;;;;;0.60;0.20;;;;;;;24.87;36.12;100635.06;5062639;28;20543;-51
2022/05/24 04:31:07;;;;;;;0.30;0.22;;;;;;;24.84;36.33;100635.03;5047274;28;20029;-49
2022/05/24 04:33:34;;;;;;;1.42;0.20;;;;;;;24.92;35.91;100635.97;5043310;28;20124;-49
2022/05/24 04:36:02;;;;;;;0.20;0.10;;;;;;;24.92;35.99;100642.94;5043799;28;20044;-49
2022/05/24 04:38:29;;;;;;;0.50;0.20;;;;;;;24.90;35.89;100645.56;5043905;28;20478;-49
2022/05/24 04:43:44;;;;;;;1.65;0.63;;;;;;;24.91;35.94;100642.06;5054796;28;20040;-45
2022/05/24 04:46:13;;;;;;;3.33;0.73;;;;;;;24.85;35.73;100640.31;5062436;28;20043;-47
2022/05/24 04:48:41;;;;;;;0.73;0.30;;;;;;;24.87;36.20;100645.56;5062153;28;20378;-46
2022/05/24 04:51:09;;;;;;;0.70;0.20;;;;;;;24.97;35.56;100638.59;5062285;28;20032;-50
2022/05/24 04:53:37;;;;;;;2.72;0.50;;;;;;;24.88;35.82;100635.09;5064991;28;20113;-49
2022/05/24 04:56:05;;;;;;;0.80;0.35;;;;;;;24.83;35.92;100649.91;5065485;28;20044;-47
2022/05/24 04:58:34;;;;;;;0.93;0.40;;;;;;;24.85;35.68;100644.66;5066197;28;20036;-51
2022/05/24 05:01:02;;;;;;;1.75;0.30;;;;;;;24.84;36.10;100649.06;5064519;28;20052;-46
2022/05/24 05:03:31;;;;;;;1.08;0.40;;;;;;;24.84;35.79;100648.16;5055778;28;20078;-52
2022/05/24 05:05:59;;;;;;;0.80;0.28;;;;;;;24.81;36.08;100648.16;5065853;28;20032;-46
2022/05/24 05:08:27;;;;;;;0.50;0.20;;;;;;;24.79;36.15;100647.28;5065834;28;20040;-45
2022/05/24 05:10:56;;;;;;;0.75;0.17;;;;;;;24.84;36.12;100662.16;5065274;28;20070;-49
2022/05/24 05:13:23;;;;;;;0.43;0.20;;;;;;;24.88;35.96;100663.94;5064389;28;20109;-48
2022/05/24 05:15:51;;;;;;;1.75;0.30;;;;;;;24.92;35.83;100666.56;5066092;28;20028;-51
2022/05/24 05:18:20;;;;;;;0.95;0.43;;;;;;;24.93;35.88;100668.31;5065629;28;20110;-47
2022/05/24 05:20:49;;;;;;;1.75;0.40;;;;;;;24.86;35.99;100676.16;5046816;28;20104;-48
2022/05/24 05:23:17;;;;;;;1.20;0.55;;;;;;;24.93;35.93;100682.31;5065759;28;20024;-45
2022/05/24 05:25:47;;;;;;;0.43;0.30;;;;;;;24.98;35.77;100685.84;5064880;28;20048;-45
2022/05/24 05:28:17;;;;;;;0.85;0.22;;;;;;;25.03;35.37;100688.50;5046658;28;21201;-46
2022/05/24 05:31:27;;;;;;;1.55;0.30;;;;;;;25.03;35.65;100685.88;5065771;28;20033;-49
2022/05/24 05:33:33;;;;;;;1.13;0.40;;;;;;;24.99;35.63;100689.34;5049258;28;20040;-45
2022/05/24 05:36:01;;;;;;;0.50;0.22;;;;;;;25.01;35.53;100692.84;5046572;28;20037;-46
2022/05/24 05:38:31;;;;;;;0.60;0.25;;;;;;;24.93;35.52;100691.94;5048104;28;20060;-51
2022/05/24 05:40:59;;;;;;;0.82;0.30;;;;;;;24.96;35.87;100695.47;5065303;28;20087;-46
2022/05/24 05:43:27;;;;;;;0.65;0.30;;;;;;;24.99;35.50;100694.59;5064634;28;20064;-49
2022/05/24 05:45:57;;;;;;;2.13;0.50;;;;;;;25.02;35.95;100698.09;5064968;28;20032;-52
2022/05/24 05:48:25;;;;;;;1.13;0.30;;;;;;;24.98;36.14;100696.34;5064049;28;20120;-46
2022/05/24 05:50:54;;;;;;;2.05;0.40;;;;;;;24.97;36.07;100694.59;5064804;28;20056;-50
2022/05/24 05:53:23;;;;;;;0.98;0.32;;;;;;;24.94;36.10;100702.44;5063823;28;20067;-45
2022/05/24 05:55:50;;;;;;;2.70;0.40;;;;;;;24.91;36.21;100694.56;5054939;28;20397;-46
2022/05/24 05:58:19;;;;;;;0.63;0.22;;;;;;;24.95;35.92;100698.06;5064612;28;20360;-48
2022/05/24 06:00:48;;;;;;;0.63;0.38;;;;;;;24.98;36.09;100700.72;5065061;28;20094;-46
2022/05/24 06:03:17;;;;;;;1.45;0.20;;;;;;;25.00;35.92;100702.47;5064754;28;20035;-50
2022/05/24 06:05:46;;;;;;;0.70;0.30;;;;;;;25.05;36.05;100697.25;5065036;28;20039;-45
2022/05/24 06:08:13;;;;;;;2.28;0.60;;;;;;;25.10;36.40;100700.75;5063503;28;20382;-48
2022/05/24 06:10:41;;;;;;;2.28;0.63;;;;;;;25.12;36.06;100704.25;5064968;28;20035;-50
2022/05/24 06:13:09;;;;;;;1.55;0.40;;;;;;;25.11;36.43;100709.53;5064077;28;20028;-49
2022/05/24 06:15:38;;;;;;;0.35;0.13;;;;;;;25.03;36.43;100693.75;5064742;28;20442;-46
2022/05/24 06:18:06;;;;;;;1.63;0.45;;;;;;;25.20;36.19;100716.56;5064987;28;20086;-46
2022/05/24 06:20:36;;;;;;;1.42;0.40;;;;;;;25.23;36.31;100716.56;5064789;28;20063;-47
2022/05/24 06:23:04;;;;;;;4.15;0.52;;;;;;;25.28;36.43;100715.72;5064249;28;20032;-44
2022/05/24 06:25:32;;;;;;;1.13;0.52;;;;;;;25.34;36.59;100725.34;5064768;28;20492;-47
2022/05/24 06:28:01;;;;;;;1.42;0.30;;;;;;;25.37;36.37;100724.47;5047862;28;20032;-46
2022/05/24 06:30:30;;;;;;;2.17;0.45;;;;;;;25.44;36.30;100726.28;5045519;28;20079;-47
2022/05/24 06:32:58;;;;;;;2.05;0.50;;;;;;;25.45;36.90;100735.94;5064310;28;20024;-49
2022/05/24 06:35:27;;;;;;;1.58;0.20;;;;;;;25.51;36.68;100729.81;5045340;28;20036;-46
2022/05/24 06:37:55;;;;;;;3.40;0.40;;;;;;;25.51;36.32;100740.31;5064245;28;20032;-47
2022/05/24 06:40:23;;;;;;;2.80;0.35;;;;;;;25.57;36.60;100743.84;5064014;28;20115;-47
2022/05/24 06:42:51;;;;;;;1.90;0.77;;;;;;;25.62;36.31;100739.47;5063870;28;20028;-46
2022/05/24 06:45:18;;;;;;;2.38;0.50;;;;;;;25.66;36.48;100742.09;5063944;28;20028;-47
2022/05/24 06:47:45;;;;;;;5.65;0.68;;;;;;;25.66;36.54;100736.84;5064128;28;20055;-45
2022/05/24 06:50:13;;;;;;;7.68;0.60;;;;;;;25.62;36.39;100731.59;5063821;28;20039;-46
2022/05/24 06:52:40;;;;;;;4.82;0.60;;;;;;;25.68;36.28;100743.88;5063883;28;20028;-49
2022/05/24 06:55:09;;;;;;;2.65;0.80;;;;;;;25.68;36.19;100741.25;5063297;28;20032;-46
2022/05/24 06:57:38;;;;;;;4.03;0.63;;;;;;;25.68;36.37;100743.88;5063764;28;20024;-47
2022/05/24 07:03:06;;;;;;;3.65;0.98;;;;;;;25.73;36.07;100742.09;5059813;28;20041;-47
2022/05/24 07:05:34;;;;;;;3.33;0.50;;;;;;;25.77;36.01;100743.88;5063240;28;20107;-47
2022/05/24 07:08:02;;;;;;;4.88;0.60;;;;;;;25.72;36.44;100732.50;5063672;28;21220;-45
2022/05/24 07:10:32;;;;;;;7.13;0.95;;;;;;;25.76;36.18;100739.50;5063372;28;20024;-47
2022/05/24 07:13:13;;;;;;;3.60;0.90;;;;;;;25.86;36.28;100737.75;5053005;28;20127;-45
2022/05/24 07:15:42;;;;;;;5.45;1.10;;;;;;;25.87;36.43;100742.13;5056520;28;20482;-49
2022/05/24 07:18:10;;;;;;;4.40;1.38;;;;;;;25.87;36.49;100734.25;5063557;28;20036;-51
2022/05/24 07:20:39;;;;;;;3.50;0.88;;;;;;;25.92;36.08;100743.03;5063396;28;20039;-45
2022/05/24 07:23:10;;;;;;;3.50;0.90;;;;;;;25.93;36.52;100731.66;5061880;28;20060;-45
2022/05/24 07:25:41;;;;;;;4.97;0.85;;;;;;;25.97;36.19;100742.16;5063371;28;20469;-48
2022/05/24 07:28:11;;;;;;;3.38;0.98;;;;;;;26.02;36.12;100746.56;5063368;28;20159;-46
2022/05/24 07:30:40;;;;;;;3.83;0.80;;;;;;;26.03;36.34;100753.56;5062966;28;20119;-48
2022/05/24 07:33:08;;;;;;;4.45;0.90;;;;;;;26.07;36.21;100754.44;5062938;28;20032;-47
2022/05/24 07:35:37;;;;;;;4.32;1.00;;;;;;;26.07;36.01;100759.69;5062567;28;20037;-45
2022/05/24 07:38:11;;;;;;;3.22;1.00;;;;;;;26.10;36.05;100757.06;5062363;28;20025;-46
2022/05/24 07:46:16;;;;;;;4.78;1.05;;;;;;;26.16;36.08;100761.47;5054543;28;20101;-47
2022/05/24 07:48:44;;;;;;;6.80;1.25;;;;;;;26.14;35.79;100777.28;5062596;28;20074;-51
2022/05/24 07:51:13;;;;;;;2.22;0.60;;;;;;;26.15;35.83;100768.47;5062164;28;20037;-48
2022/05/24 07:53:42;;;;;;;1.75;0.57;;;;;;;26.14;35.89;100766.75;5062741;28;20029;-46
2022/05/24 07:56:09;;;;;;;4.50;1.10;;;;;;;26.16;35.73;100772.88;5062390;28;20146;-48
2022/05/24 07:58:37;;;;;;;4.63;1.05;;;;;;;26.19;35.68;100769.38;5078103;28;21002;-47
2022/05/24 08:01:06;;;;;;;5.80;0.88;;;;;;;26.19;35.73;100770.25;5077878;28;20112;-45
2022/05/24 08:03:35;;;;;;;4.22;0.90;;;;;;;26.18;35.81;100765.84;5062757;28;20117;-45
2022/05/24 08:06:03;;;;;;;3.70;0.77;;;;;;;26.22;35.74;100767.63;5062495;28;20032;-49
2022/05/24 08:08:32;;;;;;;4.63;0.90;;;;;;;26.23;35.75;100758.84;5062577;28;20020;-49
2022/05/24 08:11:00;;;;;;;6.18;1.20;;;;;;;26.21;35.50;100757.97;5046537;28;20081;-49
2022/05/24 08:13:29;;;;;;;4.35;0.93;;;;;;;26.26;35.69;100768.50;5062844;28;20489;-45
2022/05/24 08:15:58;;;;;;;4.18;1.30;;;;;;;26.30;35.59;100761.50;5061733;28;20424;-47
2022/05/24 08:18:27;;;;;;;2.38;0.93;;;;;;;26.33;35.40;100758.84;5051216;28;20037;-46
2022/05/24 08:20:56;;;;;;;3.17;0.80;;;;;;;26.36;35.28;100767.63;5061870;28;20509;-49
2022/05/24 08:23:25;;;;;;;5.00;1.10;;;;;;;26.41;35.12;100766.72;5062611;28;20093;-46
2022/05/24 08:25:54;;;;;;;4.25;0.80;;;;;;;26.37;35.14;100755.34;5043767;28;20048;-49
2022/05/24 08:28:22;;;;;;;3.47;1.15;;;;;;;26.33;35.05;100745.69;5047844;28;20091;-45
2022/05/24 08:30:53;;;;;;;3.75;0.98;;;;;;;26.42;35.03;100755.34;5066216;28;20465;-47
2022/05/24 08:33:23;;;;;;;3.90;0.82;;;;;;;26.38;33.72;100763.25;5055968;28;20626;-45
2022/05/24 08:35:53;;;;;;;4.82;1.17;;;;;;;26.12;33.41;100767.59;5047467;28;20029;-45
2022/05/24 08:38:22;;;;;;;3.97;0.93;;;;;;;25.77;33.61;100766.66;5066528;28;20565;-48
2022/05/24 08:40:51;;;;;;;6.03;1.00;;;;;;;25.55;33.88;100765.72;5066783;28;20094;-46
2022/05/24 08:43:46;;;;;;;4.82;0.98;;;;;;;25.15;33.28;100762.03;5040479;28;20035;-50
2022/05/24 08:49:07;;;;;;;5.72;1.00;;;;;;;25.07;34.36;100754.97;5055496;28;20048;-46
2022/05/24 08:52:00;;;;;;;2.38;0.90;;;;;;;24.95;34.99;100758.41;5056326;28;20029;-46
2022/05/24 08:54:43;;;;;;;4.63;0.90;;;;;;;24.91;35.03;100764.50;5051337;28;20036;-46
2022/05/24 08:57:33;;;;;;;4.15;1.02;;;;;;;24.79;34.28;100762.72;5064828;28;20068;-45
2022/05/24 09:00:06;;;;;;;2.95;1.20;;;;;;;24.72;34.07;100774.91;5065603;28;20024;-51
2022/05/24 09:02:45;;;;;;;2.08;0.85;;;;;;;24.49;34.60;100770.34;5065636;28;20052;-50
2022/05/24 09:05:25;;;;;;;3.30;0.75;;;;;;;24.46;34.72;100762.44;5064743;28;20029;-46
2022/05/24 09:08:08;;;;;;;4.22;0.88;;;;;;;24.54;35.00;100762.50;5064783;28;20082;-48
2022/05/24 09:10:48;;;;;;;3.00;1.02;;;;;;;24.45;34.85;100765.06;5065589;28;20020;-47
2022/05/24 09:13:35;;;;;;;6.40;1.33;;;;;;;24.47;35.03;100773.81;5065862;28;20024;-47
2022/05/24 09:16:15;;;;;;;4.47;0.90;;;;;;;24.35;35.19;100775.44;5063975;28;20032;-45
2022/05/24 09:19:17;;;;;;;7.38;1.25;;;;;;;24.19;34.72;100769.22;5065441;28;20028;-46
2022/05/24 09:21:47;;;;;;;3.95;0.88;;;;;;;24.02;35.70;100774.28;5045464;28;20099;-50
2022/05/24 09:24:22;;;;;;;5.80;1.35;;;;;;;23.97;35.77;100774.25;5046710;28;20033;-50
2022/05/24 09:27:29;;;;;;;6.25;1.52;;;;;;;23.93;36.01;100780.28;5050421;28;20068;-45
2022/05/24 09:29:59;;;;;;;3.53;0.93;;;;;;;23.84;36.45;100785.44;5046380;28;20047;-48
2022/05/24 09:32:47;;;;;;;5.68;1.25;;;;;;;23.66;37.38;100786.97;5046302;28;20052;-45
2022/05/24 09:35:19;;;;;;;3.47;0.90;;;;;;;23.78;37.56;100798.44;5044867;28;20043;-48
2022/05/24 09:38:08;;;;;;;6.57;0.80;;;;;;;24.11;37.70;100794.47;5045694;28;20044;-45
2022/05/24 09:40:58;;;;;;;5.15;1.00;;;;;;;24.47;37.10;100789.56;5046157;28;20028;-47
2022/05/24 09:43:39;;;;;;;4.90;1.10;;;;;;;24.69;36.65;100787.97;5046294;28;20035;-46
2022/05/24 09:46:13;;;;;;;4.78;1.10;;;;;;;24.82;37.00;100778.47;5044264;28;20040;-46
2022/05/24 09:48:53;;;;;;;3.05;0.70;;;;;;;24.96;36.49;100765.41;5046230;28;20031;-47
2022/05/24 09:51:27;;;;;;;3.15;0.95;;;;;;;25.10;36.40;100779.50;5046126;28;20036;-48
2022/05/24 09:53:56;;;;;;;7.13;1.23;;;;;;;25.21;36.43;100776.94;5054558;28;20036;-47
2022/05/24 09:56:29;;;;;;;5.03;1.30;;;;;;;25.27;36.38;100783.94;5064642;28;20020;-48
2022/05/24 09:59:00;;;;;;;7.82;1.70;;;;;;;25.34;36.67;100777.88;5046190;28;20096;-50
2022/05/24 10:01:36;;;;;;;11.93;1.42;;;;;;;25.41;36.19;100789.28;5045987;28;20104;-49
2022/05/24 10:04:28;;;;;;;6.55;1.25;;;;;;;25.51;36.10;100784.97;5045852;28;20029;-49
2022/05/24 10:07:00;;;;;;;6.47;1.67;;;;;;;25.50;36.15;100784.06;5043098;28;20041;-46
2022/05/24 10:09:45;;;;;;;6.63;1.83;;;;;;;25.61;35.79;100790.25;5045675;28;20029;-45
2022/05/24 10:12:40;;;;;;;3.58;1.15;;;;;;;25.62;35.94;100789.41;5065205;28;20027;-47
2022/05/24 10:15:15;;;;;;;3.13;1.00;;;;;;;25.67;35.67;100789.41;5038309;28;20731;-47
2022/05/24 10:17:57;;;;;;;3.67;1.15;;;;;;;25.70;35.72;100780.63;5045957;28;20028;-48
2022/05/24 10:20:49;;;;;;;6.72;1.33;;;;;;;25.76;35.79;100781.53;5045593;28;20082;-51
2022/05/24 10:23:51;;;;;;;5.00;1.20;;;;;;;25.76;35.72;100784.16;5045566;28;20071;-46
2022/05/24 10:26:22;;;;;;;5.68;1.02;;;;;;;25.79;35.49;100794.69;5038367;28;20040;-45
2022/05/24 10:28:59;;;;;;;2.38;0.80;;;;;;;25.77;35.78;100791.16;5054213;28;20029;-49
2022/05/24 10:31:53;;;;;;;2.55;0.95;;;;;;;25.80;35.16;100787.69;5064286;28;20397;-51
2022/05/24 10:38:21;;;;;;;3.70;0.90;;;;;;;25.83;35.42;100784.19;5041008;28;20052;-48
2022/05/24 10:40:49;;;;;;;3.45;0.77;;;;;;;25.90;35.45;100794.72;5041256;28;20037;-46
2022/05/24 10:43:56;;;;;;;2.60;0.80;;;;;;;25.91;35.02;100790.31;5043868;28;20040;-52
2022/05/24 10:46:31;;;;;;;5.10;1.30;;;;;;;25.88;35.13;100792.97;5040744;28;20029;-47
2022/05/24 10:49:14;;;;;;;4.72;0.98;;;;;;;25.92;35.19;100786.81;5045091;28;20097;-49
2022/05/24 10:51:49;;;;;;;3.13;0.65;;;;;;;25.91;34.89;100800.81;5053541;28;20037;-46
2022/05/24 10:54:44;;;;;;;3.45;0.95;;;;;;;25.92;34.77;100800.84;5064006;28;20067;-48
2022/05/24 10:57:21;;;;;;;;;;;;;;;26.01;34.53;100802.63;5040832;28;20119;-46
2022/05/24 11:00:17;;;;;;;4.35;1.02;;;;;;;26.01;34.12;100800.00;5043543;28;20303;-47
2022/05/24 11:03:04;;;;;;;2.70;0.82;;;;;;;25.99;34.43;100785.97;5043190;28;20039;-47
2022/05/24 11:05:39;;;;;;;2.70;0.70;;;;;;;25.97;34.42;100789.47;5053923;28;20064;-47
2022/05/24 11:08:25;;;;;;;;;;;;;;;26.07;34.16;100793.88;5063399;28;20064;-50
2022/05/24 11:11:14;;;;;;;2.80;0.80;;;;;;;26.02;34.26;100793.88;5121229;27;20435;-44
2022/05/24 11:13:53;;;;;;;4.65;0.80;;;;;;;26.06;34.14;100789.47;5120338;28;20104;-45
2022/05/24 11:16:25;;;;;;;4.13;0.77;;;;;;;26.08;34.24;100801.75;5120657;28;20059;-46
2022/05/24 11:18:53;;;;;;;4.05;0.70;;;;;;;26.09;33.81;100800.88;5120357;28;20039;-43
2022/05/24 11:21:36;;;;;;;2.83;1.02;;;;;;;26.08;34.18;100808.75;5121578;27;20059;-43
2022/05/24 11:24:08;;;;;;;3.38;0.70;;;;;;;26.08;34.37;100809.63;5121502;27;20501;-46
2022/05/24 11:26:39;;;;;;;3.55;1.00;;;;;;;26.08;33.25;100803.50;5120693;28;20030;-45
2022/05/24 11:29:28;;;;;;;3.83;0.70;;;;;;;25.94;33.87;100812.25;5121676;27;20039;-44
2022/05/24 11:32:03;;;;;;;3.47;1.13;;;;;;;26.00;34.14;100815.75;5121825;27;20046;-44
2022/05/24 11:34:34;;;;;;;4.25;0.85;;;;;;;26.08;34.55;100814.03;5121644;27;20430;-45
2022/05/24 11:37:11;;;;;;;3.78;1.00;;;;;;;26.11;33.96;100808.81;5121330;27;20106;-44
2022/05/24 11:39:40;;;;;;;1.73;0.70;;;;;;;26.18;33.75;100822.84;5119921;28;20401;-45
2022/05/24 11:42:46;;;;;;;3.72;0.90;;;;;;;26.18;33.71;100817.56;5107592;28;20023;-45
2022/05/24 11:45:32;;;;;;;3.55;0.60;;;;;;;26.19;34.10;100816.69;5120407;27;20734;-45
2022/05/24 11:48:04;;;;;;;2.65;0.77;;;;;;;26.21;34.35;100817.59;5121597;27;20030;-44
2022/05/24 11:50:33;;;;;;;3.47;1.00;;;;;;;26.19;33.96;100830.72;5119958;28;20038;-46
2022/05/24 11:53:12;;;;;;;4.97;0.82;;;;;;;26.15;34.42;100822.81;5121263;28;20039;-47
2022/05/24 11:55:46;;;;;;;4.53;0.95;;;;;;;26.12;34.51;100825.44;5121553;27;20663;-49
2022/05/24 11:58:41;;;;;;;2.10;0.70;;;;;;;26.16;34.17;100829.84;5119808;28;20092;-45
2022/05/24 12:01:19;;;;;;;3.58;0.75;;;;;;;26.27;34.14;100848.28;5121328;28;20088;-47
2022/05/24 12:07:55;;;;;;;4.18;1.00;;;;;;;26.32;33.92;100855.28;5120722;27;20114;-47
2022/05/24 12:10:21;;;;;;;3.33;0.70;;;;;;;26.34;34.25;100860.53;5117596;27;20051;-50
2022/05/24 12:12:50;;;;;;;5.15;0.80;;;;;;;26.29;34.02;100870.19;5121094;27;20197;-46
2022/05/24 12:15:25;;;;;;;0.32;0.28;;;;;;;26.36;33.83;100871.94;5120693;28;20399;-44
2022/05/24 12:18:14;;;;;;;4.13;0.98;;;;;;;26.34;33.76;100878.94;5118993;28;20027;-47
2022/05/24 12:20:42;;;;;;;1.65;0.50;;;;;;;26.35;33.85;100884.22;5116483;27;20032;-49
2022/05/24 12:23:14;;;;;;;3.40;0.88;;;;;;;26.36;33.63;100888.59;5107030;28;20027;-43
2022/05/24 12:25:51;;;;;;;2.40;0.50;;;;;;;26.18;33.95;100884.16;5107288;28;20031;-44